Time;durP1;ratioP1;P1;durP2;ratioP2;P2;SDS_P1;SDS_P2;PMS_P1;PMS_P2;Temp;Humidity;BMP_temperature;BMP_pressure;BME280_temperature;BME280_humidity;BME280_pressure;Samples;Min_cycle;Max_cycle;Signal;HPM_P1;HPM_P2
2021/07/19 00:00:22;;;;;;;0.70;0.70;;;;;;;18.71;47.47;100850.38;5079614;28;20743;-66
2021/07/19 00:02:54;;;;;;;0.67;0.67;;;;;;;18.67;48.01;100849.78;5069042;28;20221;-66
2021/07/19 00:05:24;;;;;;;0.53;0.50;;;;;;;18.57;47.85;100835.38;5081068;28;20250;-66
2021/07/19 00:07:53;;;;;;;1.07;0.80;;;;;;;18.51;47.55;100852.31;5086441;28;20279;-70
2021/07/19 00:10:23;;;;;;;0.60;0.60;;;;;;;18.36;47.61;100821.19;5084633;28;20594;-69
2021/07/19 00:12:52;;;;;;;0.77;0.77;;;;;;;18.52;48.08;100863.03;5078181;28;20688;-67
2021/07/19 00:15:28;;;;;;;0.90;0.90;;;;;;;18.44;48.44;100864.81;5086284;28;20217;-70
2021/07/19 00:17:58;;;;;;;0.80;0.80;;;;;;;18.42;47.95;100867.69;5098768;28;20204;-67
2021/07/19 00:20:27;;;;;;;0.60;0.60;;;;;;;18.30;48.00;100869.72;5075731;28;20305;-70
2021/07/19 00:22:55;;;;;;;0.60;0.60;;;;;;;18.18;48.52;100867.38;5083163;28;20205;-69
2021/07/19 00:25:25;;;;;;;0.80;0.80;;;;;;;18.20;48.26;100870.78;5076852;28;20216;-69
2021/07/19 00:27:55;;;;;;;0.67;0.67;;;;;;;17.91;48.56;100846.44;5086838;28;20208;-65
2021/07/19 00:30:25;;;;;;;1.10;0.80;;;;;;;18.05;48.55;100883.16;5077063;28;20196;-69
2021/07/19 00:32:54;;;;;;;0.67;0.67;;;;;;;18.01;48.96;100879.88;5086166;28;20572;-66
2021/07/19 00:35:23;;;;;;;0.60;0.60;;;;;;;17.97;48.49;100892.06;5086420;28;20477;-66
2021/07/19 00:37:55;;;;;;;2.83;0.70;;;;;;;17.97;48.75;100898.34;5082715;28;20201;-65
2021/07/19 00:40:27;;;;;;;1.40;0.90;;;;;;;17.91;48.89;100890.78;5080234;28;20351;-69
2021/07/19 00:42:56;;;;;;;0.70;0.70;;;;;;;17.81;49.17;100881.81;5080303;28;20197;-65
2021/07/19 00:45:27;;;;;;;0.70;0.70;;;;;;;17.85;49.31;100894.09;5106881;28;20288;-66
2021/07/19 00:47:58;;;;;;;0.60;0.60;;;;;;;17.80;49.58;100890.97;5079332;28;20204;-65
2021/07/19 00:50:29;;;;;;;0.70;0.70;;;;;;;17.76;49.39;100902.28;5089010;28;20193;-65
2021/07/19 00:52:59;;;;;;;0.50;0.50;;;;;;;17.77;49.69;100904.00;5090376;28;20235;-66
2021/07/19 00:55:32;;;;;;;2.47;0.90;;;;;;;17.69;49.88;100899.28;5081015;28;20689;-66
2021/07/19 00:58:03;;;;;;;0.83;0.70;;;;;;;17.66;49.52;100905.81;5082123;28;20916;-66
2021/07/19 01:00:34;;;;;;;0.90;0.80;;;;;;;17.62;49.94;100914.41;5078391;28;20277;-65
2021/07/19 01:03:05;;;;;;;1.90;0.50;;;;;;;17.51;49.50;100912.72;5083727;28;20204;-65
2021/07/19 01:05:38;;;;;;;0.70;0.70;;;;;;;17.50;49.82;100911.00;5079780;28;20204;-65
2021/07/19 01:08:08;;;;;;;0.60;0.60;;;;;;;17.47;49.85;100908.59;5079468;28;20204;-66
2021/07/19 01:10:40;;;;;;;0.63;0.63;;;;;;;17.45;50.02;100913.31;5077337;28;20221;-65
2021/07/19 01:13:09;;;;;;;0.70;0.70;;;;;;;17.40;50.42;100921.00;5084864;28;20196;-66
2021/07/19 01:15:38;;;;;;;0.60;0.60;;;;;;;17.28;49.80;100917.59;5083248;28;20193;-69
2021/07/19 01:18:11;;;;;;;1.17;0.63;;;;;;;17.05;50.53;100881.72;5077482;28;20238;-68
2021/07/19 01:21:02;;;;;;;0.60;0.60;;;;;;;17.20;50.57;100919.31;5084698;28;20328;-69
2021/07/19 01:24:06;;;;;;;0.63;0.63;;;;;;;17.11;51.44;100923.72;5082651;28;20515;-69
2021/07/19 01:26:53;;;;;;;2.10;0.70;;;;;;;17.00;51.59;100927.41;5076358;28;20255;-69
2021/07/19 01:29:24;;;;;;;0.57;0.57;;;;;;;16.69;51.20;100894.09;5080203;28;20735;-69
2021/07/19 01:31:53;;;;;;;0.60;0.60;;;;;;;16.60;51.46;100888.63;5097218;28;20192;-66
2021/07/19 01:34:25;;;;;;;0.73;0.73;;;;;;;16.81;51.45;100931.94;5083210;28;20199;-69
2021/07/19 01:36:56;;;;;;;0.50;0.50;;;;;;;16.68;51.96;100927.63;5081788;28;20216;-69
2021/07/19 01:39:39;;;;;;;0.53;0.53;;;;;;;16.69;52.46;100942.06;5081757;28;20208;-65
2021/07/19 01:42:10;;;;;;;0.60;0.60;;;;;;;16.67;52.61;100944.91;5084407;28;20225;-66
2021/07/19 01:44:42;;;;;;;0.73;0.60;;;;;;;16.46;53.32;100928.66;5079906;28;20590;-65
2021/07/19 01:47:14;;;;;;;0.70;0.70;;;;;;;16.45;54.18;100954.06;5078859;28;20196;-65
2021/07/19 01:49:46;;;;;;;1.20;0.60;;;;;;;16.29;54.00;100923.06;5080245;28;20197;-65
2021/07/19 01:52:15;;;;;;;2.13;0.63;;;;;;;16.33;53.89;100938.06;5080436;28;20304;-65
2021/07/19 01:54:45;;;;;;;0.70;0.70;;;;;;;16.32;54.95;100950.75;5084225;28;20209;-65
2021/07/19 01:57:15;;;;;;;0.60;0.60;;;;;;;16.00;54.68;100921.06;5079326;28;20279;-66
2021/07/19 01:59:54;;;;;;;0.87;0.83;;;;;;;16.25;54.49;100957.72;5080706;28;20467;-65
2021/07/19 02:02:41;;;;;;;0.60;0.60;;;;;;;16.15;55.17;100956.78;5077369;28;20684;-65
2021/07/19 02:05:21;;;;;;;0.70;0.70;;;;;;;16.13;54.79;100951.50;5079441;28;20197;-65
2021/07/19 02:07:57;;;;;;;0.60;0.60;;;;;;;16.09;55.50;100960.03;5082951;28;20207;-65
2021/07/19 02:10:29;;;;;;;0.53;0.53;;;;;;;16.06;55.50;100966.59;5082533;28;20288;-65
2021/07/19 02:13:02;;;;;;;0.57;0.57;;;;;;;16.01;55.61;100962.56;5097269;28;20205;-66
2021/07/19 02:15:39;;;;;;;0.97;0.97;;;;;;;15.80;56.34;100939.03;5079981;28;20204;-65
2021/07/19 02:18:09;;;;;;;1.00;0.90;;;;;;;15.99;55.90;100975.38;5077098;28;20205;-65
2021/07/19 02:20:42;;;;;;;0.70;0.70;;;;;;;15.83;56.81;100978.53;5078536;28;20251;-65
2021/07/19 02:23:14;;;;;;;0.87;0.73;;;;;;;15.74;57.18;100982.91;5081328;28;20291;-65
2021/07/19 02:26:03;;;;;;;1.27;0.60;;;;;;;15.58;57.12;100960.81;5079523;28;20217;-65
2021/07/19 02:28:34;;;;;;;0.70;0.70;;;;;;;15.51;57.21;100955.03;5080961;28;20311;-65
2021/07/19 02:31:06;;;;;;;3.00;0.80;;;;;;;15.64;57.18;100982.00;5078349;28;20683;-65
2021/07/19 02:33:36;;;;;;;0.60;0.60;;;;;;;15.58;57.17;100987.91;5082836;28;20212;-68
2021/07/19 02:36:10;;;;;;;0.40;0.40;;;;;;;15.61;56.69;100998.50;5096670;28;20212;-65
2021/07/19 02:38:42;;;;;;;2.67;1.00;;;;;;;15.52;57.60;101008.19;5079310;28;20243;-69
2021/07/19 02:41:20;;;;;;;5.30;0.70;;;;;;;15.49;57.06;101015.72;5080238;28;20313;-65
2021/07/19 02:43:50;;;;;;;0.83;0.83;;;;;;;15.44;57.29;101018.81;5084074;28;20246;-65
2021/07/19 02:46:25;;;;;;;0.50;0.50;;;;;;;15.50;57.06;101018.28;5076946;28;20196;-65
2021/07/19 02:48:56;;;;;;;0.60;0.60;;;;;;;15.51;57.15;101024.56;5082293;28;20589;-69
2021/07/19 02:51:27;;;;;;;0.40;0.40;;;;;;;15.61;57.28;101025.56;5074442;28;20276;-69
2021/07/19 02:54:05;;;;;;;0.40;0.40;;;;;;;15.89;57.02;101036.75;5076005;28;20201;-65
2021/07/19 02:56:36;;;;;;;0.40;0.40;;;;;;;16.33;56.82;101022.94;5076005;28;20240;-65
2021/07/19 02:59:04;;;;;;;1.37;0.80;;;;;;;16.91;55.91;101034.09;5078586;28;20736;-69
2021/07/19 03:01:35;;;;;;;0.60;0.60;;;;;;;17.47;54.78;101030.78;5097097;28;20264;-69
2021/07/19 03:04:06;;;;;;;1.23;0.60;;;;;;;17.87;53.09;101032.53;5079688;28;20239;-69
2021/07/19 03:06:38;;;;;;;0.60;0.60;;;;;;;18.30;52.32;101038.31;5093395;28;20197;-69
2021/07/19 03:09:15;;;;;;;0.50;0.50;;;;;;;18.56;51.25;101029.53;5093829;28;20204;-65
2021/07/19 03:11:48;;;;;;;0.40;0.40;;;;;;;18.64;50.75;101005.19;5078450;28;20244;-66
2021/07/19 03:14:25;;;;;;;0.50;0.50;;;;;;;19.10;50.61;101045.06;5089109;28;20234;-69
2021/07/19 03:17:04;;;;;;;0.50;0.50;;;;;;;19.18;49.96;101052.47;5082392;28;20278;-66
2021/07/19 03:19:37;;;;;;;0.50;0.50;;;;;;;19.14;49.25;101048.34;5089387;28;20678;-66
2021/07/19 03:22:07;;;;;;;0.60;0.60;;;;;;;18.91;49.85;101054.19;5081860;28;20380;-66
2021/07/19 03:24:55;;;;;;;0.90;0.57;;;;;;;18.73;49.97;101052.44;5081121;28;20584;-65
2021/07/19 03:27:28;;;;;;;0.60;0.60;;;;;;;18.53;49.91;101059.75;5080869;28;20200;-65
2021/07/19 03:29:58;;;;;;;0.60;0.60;;;;;;;18.34;50.57;101071.53;5087734;28;20220;-65
2021/07/19 03:32:38;;;;;;;0.40;0.40;;;;;;;18.24;50.84;101074.25;5086427;28;20229;-65
2021/07/19 03:35:14;;;;;;;0.60;0.60;;;;;;;18.14;50.83;101059.84;5086197;28;20206;-65
2021/07/19 03:37:45;;;;;;;0.60;0.60;;;;;;;18.16;51.33;101056.97;5074193;28;20205;-65
2021/07/19 03:40:19;;;;;;;0.40;0.40;;;;;;;18.20;51.31;101074.72;5087383;28;20685;-68
2021/07/19 03:42:54;;;;;;;0.50;0.50;;;;;;;18.21;50.60;101080.00;5076526;28;20239;-69
2021/07/19 03:45:23;;;;;;;0.70;0.50;;;;;;;18.19;51.04;101079.28;5087876;28;20810;-69
2021/07/19 03:47:54;;;;;;;0.40;0.40;;;;;;;18.12;51.17;101080.00;5075730;28;20210;-69
2021/07/19 03:50:24;;;;;;;0.53;0.53;;;;;;;17.86;51.79;101074.31;5087840;28;20228;-69
2021/07/19 03:52:53;;;;;;;1.33;0.50;;;;;;;17.81;52.10;101088.31;5076851;28;20201;-69
2021/07/19 03:55:26;;;;;;;0.43;0.43;;;;;;;17.71;52.06;101079.28;5085575;28;20617;-69
2021/07/19 03:57:57;;;;;;;0.60;0.60;;;;;;;17.38;51.98;101042.47;5088104;28;20211;-69
2021/07/19 04:00:26;;;;;;;3.10;0.50;;;;;;;17.47;52.45;101082.38;5086447;28;20261;-69
2021/07/19 04:03:16;;;;;;;0.33;0.33;;;;;;;17.44;52.33;101085.34;5077600;28;20239;-69
2021/07/19 04:05:50;;;;;;;0.60;0.60;;;;;;;17.33;53.00;101080.91;5089799;28;20232;-69
2021/07/19 04:08:24;;;;;;;0.60;0.60;;;;;;;17.28;52.99;101090.47;5092256;28;20680;-69
2021/07/19 04:10:53;;;;;;;0.30;0.30;;;;;;;17.25;53.41;101088.03;5089169;28;20196;-69
2021/07/19 04:13:24;;;;;;;0.60;0.60;;;;;;;17.26;53.86;101087.03;5081917;28;20197;-69
2021/07/19 04:15:54;;;;;;;0.70;0.70;;;;;;;17.35;53.23;101097.06;5090055;28;20215;-69
2021/07/19 04:18:24;;;;;;;0.50;0.50;;;;;;;17.45;52.94;101091.63;5079572;28;20203;-69
2021/07/19 04:20:55;;;;;;;0.57;0.57;;;;;;;17.43;53.05;101097.22;5090476;28;20232;-69
2021/07/19 04:23:32;;;;;;;0.40;0.40;;;;;;;17.47;52.52;101082.38;5079846;28;20899;-69
2021/07/19 04:26:15;;;;;;;0.40;0.40;;;;;;;17.60;52.61;101085.69;5090808;28;20204;-69
2021/07/19 04:28:46;;;;;;;0.57;0.57;;;;;;;17.55;52.93;101109.69;5082341;28;20201;-69
2021/07/19 04:31:16;;;;;;;2.97;0.60;;;;;;;17.46;52.89;101105.09;5087803;28;20216;-69
2021/07/19 04:33:56;;;;;;;0.60;0.60;;;;;;;17.55;52.77;101098.81;5092779;28;20205;-69
2021/07/19 04:36:33;;;;;;;0.47;0.47;;;;;;;17.39;52.92;101091.19;5091295;28;20620;-69
2021/07/19 04:39:05;;;;;;;0.63;0.50;;;;;;;17.47;53.03;101105.97;5082659;28;20317;-70
2021/07/19 04:41:35;;;;;;;0.50;0.50;;;;;;;17.44;53.66;101100.78;5075038;28;20193;-69
2021/07/19 04:44:03;;;;;;;0.50;0.50;;;;;;;17.38;53.13;101107.63;5091402;28;20212;-69
2021/07/19 04:46:31;;;;;;;1.20;0.57;;;;;;;17.46;53.88;101099.69;5090627;28;20283;-69
2021/07/19 04:49:01;;;;;;;0.30;0.30;;;;;;;17.37;53.55;101104.06;5080369;28;20657;-69
2021/07/19 04:51:29;;;;;;;0.40;0.40;;;;;;;17.40;52.44;101094.78;5091943;28;20201;-69
2021/07/19 04:54:00;;;;;;;1.50;0.40;;;;;;;17.44;52.44;101104.34;5085644;28;20205;-69
2021/07/19 04:56:32;;;;;;;0.33;0.33;;;;;;;17.54;51.82;101104.41;5085709;28;20204;-69
2021/07/19 04:59:03;;;;;;;0.33;0.33;;;;;;;17.55;51.92;101120.56;5078531;28;20199;-69
2021/07/19 05:01:31;;;;;;;0.60;0.50;;;;;;;17.22;51.37;101078.31;5091068;28;20205;-69
2021/07/19 05:04:04;;;;;;;0.60;0.60;;;;;;;17.59;52.08;101126.56;5091673;28;20216;-70
2021/07/19 05:06:34;;;;;;;0.57;0.50;;;;;;;17.64;52.47;101113.41;5092413;28;20612;-69
2021/07/19 05:09:03;;;;;;;0.30;0.30;;;;;;;17.88;51.74;101118.50;5091758;28;20200;-66
2021/07/19 05:11:33;;;;;;;0.53;0.47;;;;;;;17.81;50.42;101110.06;5084408;28;20293;-66
2021/07/19 05:14:03;;;;;;;0.87;0.67;;;;;;;17.93;51.57;101116.19;5085428;28;20250;-70
2021/07/19 05:16:32;;;;;;;1.60;0.70;;;;;;;17.96;50.53;101129.50;5085060;28;20197;-70
2021/07/19 05:19:03;;;;;;;0.50;0.50;;;;;;;18.05;50.47;101119.63;5085327;28;20703;-69
2021/07/19 05:21:34;;;;;;;0.30;0.30;;;;;;;18.10;49.95;101114.66;5090255;28;20237;-70
2021/07/19 05:24:03;;;;;;;0.53;0.53;;;;;;;18.33;49.36;101124.19;5080014;28;20221;-69
2021/07/19 05:26:32;;;;;;;0.77;0.50;;;;;;;18.38;48.80;101130.09;5090362;28;20369;-69
2021/07/19 05:29:00;;;;;;;0.40;0.40;;;;;;;18.69;49.06;101128.06;5092101;28;20284;-69
2021/07/19 05:31:29;;;;;;;0.50;0.50;;;;;;;18.93;48.79;101131.09;5091507;28;20196;-69
2021/07/19 05:33:57;;;;;;;0.50;0.50;;;;;;;18.90;47.58;101138.72;5080555;28;20204;-69
2021/07/19 05:36:27;;;;;;;0.50;0.50;;;;;;;19.02;47.65;101140.28;5085309;28;20205;-70
2021/07/19 05:38:55;;;;;;;0.73;0.30;;;;;;;19.23;47.74;101140.03;5080722;28;20307;-69
2021/07/19 05:41:23;;;;;;;1.37;0.50;;;;;;;19.42;47.58;101139.94;5090811;28;20611;-65
2021/07/19 05:43:51;;;;;;;0.73;0.67;;;;;;;19.51;47.30;101136.31;5091278;28;20225;-66
2021/07/19 05:46:20;;;;;;;1.40;0.50;;;;;;;19.82;47.86;101136.84;5076998;28;20233;-69
2021/07/19 05:48:48;;;;;;;0.50;0.50;;;;;;;19.85;46.24;101139.25;5091450;28;20185;-66
2021/07/19 05:51:16;;;;;;;0.40;0.40;;;;;;;19.99;46.77;101132.44;5091086;28;20232;-66
2021/07/19 05:53:46;;;;;;;0.40;0.40;;;;;;;19.85;46.07;101142.00;5090628;28;20284;-66
2021/07/19 05:56:15;;;;;;;0.33;0.33;;;;;;;20.03;45.28;101141.16;5091412;28;20192;-69
2021/07/19 05:58:43;;;;;;;0.60;0.60;;;;;;;20.07;45.53;101143.41;5090990;28;20224;-66
2021/07/19 06:01:11;;;;;;;2.20;0.60;;;;;;;20.30;46.28;101142.94;5091220;28;20196;-66
2021/07/19 06:03:39;;;;;;;0.60;0.60;;;;;;;20.60;45.82;101142.56;5090826;28;20216;-69
2021/07/19 06:06:12;;;;;;;0.30;0.30;;;;;;;20.87;45.41;101147.00;5091389;28;20195;-66
2021/07/19 06:08:40;;;;;;;0.53;0.53;;;;;;;21.09;45.35;101137.38;5089322;28;20299;-66
2021/07/19 06:11:10;;;;;;;1.37;0.50;;;;;;;21.10;44.38;101136.38;5086524;28;20224;-65
2021/07/19 06:13:38;;;;;;;0.67;0.67;;;;;;;21.29;43.77;101146.25;5085527;28;20216;-65
2021/07/19 06:16:07;;;;;;;0.33;0.33;;;;;;;20.62;43.31;101096.00;5080272;28;20201;-66
2021/07/19 06:18:35;;;;;;;0.47;0.47;;;;;;;21.27;44.21;101154.59;5090778;28;20197;-66
2021/07/19 06:21:03;;;;;;;3.80;0.50;;;;;;;21.45;43.59;101138.13;5085765;28;20601;-69
2021/07/19 06:23:32;;;;;;;0.37;0.37;;;;;;;21.29;42.86;101154.44;5089193;28;20220;-69
2021/07/19 06:26:00;;;;;;;0.50;0.50;;;;;;;20.96;42.93;101145.19;5090677;28;20235;-69
2021/07/19 06:28:30;;;;;;;6.60;0.50;;;;;;;21.14;43.03;101165.09;5088513;28;20196;-69
2021/07/19 06:30:58;;;;;;;0.40;0.40;;;;;;;21.09;44.19;101161.97;5091327;28;20592;-69
2021/07/19 06:33:27;;;;;;;0.40;0.40;;;;;;;21.06;43.73;101167.75;5090307;28;20193;-66
2021/07/19 06:35:55;;;;;;;0.33;0.33;;;;;;;21.48;43.29;101161.53;5088231;28;20633;-66
2021/07/19 06:38:23;;;;;;;0.87;0.40;;;;;;;21.60;42.67;101124.66;5089207;28;20216;-66
2021/07/19 06:40:52;;;;;;;0.37;0.37;;;;;;;22.31;42.69;101167.91;5090222;28;20200;-66
2021/07/19 06:43:20;;;;;;;0.40;0.40;;;;;;;22.56;40.31;101172.38;5089882;28;20553;-70
2021/07/19 06:45:50;;;;;;;0.40;0.40;;;;;;;22.45;41.65;101174.59;5080850;28;20205;-69
2021/07/19 06:48:19;;;;;;;0.50;0.50;;;;;;;22.66;41.11;101171.38;5082276;28;20287;-70
2021/07/19 06:50:47;;;;;;;0.23;0.23;;;;;;;22.91;40.69;101173.06;5083264;28;20250;-69
2021/07/19 06:53:16;;;;;;;0.37;0.33;;;;;;;22.49;39.66;101182.31;5085719;28;20271;-70
2021/07/19 06:55:44;;;;;;;0.50;0.50;;;;;;;22.27;40.26;101175.59;5090361;28;20254;-66
2021/07/19 06:58:12;;;;;;;0.37;0.30;;;;;;;22.02;40.03;101169.19;5089614;28;20212;-66
2021/07/19 07:00:41;;;;;;;4.40;0.50;;;;;;;21.89;40.13;101177.06;5074496;28;20266;-66
2021/07/19 07:03:11;;;;;;;0.40;0.40;;;;;;;21.73;39.85;101179.72;5089475;28;20296;-69
2021/07/19 07:05:39;;;;;;;0.43;0.43;;;;;;;22.19;40.20;101177.50;5089718;28;20196;-69
2021/07/19 07:08:08;;;;;;;0.43;0.43;;;;;;;22.34;40.83;101181.25;5088580;28;20262;-69
2021/07/19 07:10:36;;;;;;;0.50;0.50;;;;;;;21.72;40.46;101190.81;5075729;28;20250;-66
2021/07/19 07:13:08;;;;;;;0.57;0.57;;;;;;;21.90;40.10;101184.22;5075251;28;20242;-66
2021/07/19 07:15:38;;;;;;;0.40;0.40;;;;;;;22.16;40.04;101188.78;5077002;28;20205;-66
2021/07/19 07:18:06;;;;;;;0.53;0.40;;;;;;;22.53;39.33;101185.56;5083258;28;20247;-66
2021/07/19 07:20:36;;;;;;;1.20;0.73;;;;;;;22.89;39.73;101178.72;5081374;28;20233;-66
2021/07/19 07:23:06;;;;;;;1.17;0.50;;;;;;;23.31;39.70;101188.56;5075056;28;20188;-66
2021/07/19 07:25:35;;;;;;;0.40;0.40;;;;;;;23.16;39.87;101185.69;5087996;28;20592;-65
2021/07/19 07:28:05;;;;;;;0.40;0.40;;;;;;;22.75;37.14;101184.00;5089239;28;20201;-69
2021/07/19 07:30:33;;;;;;;0.50;0.50;;;;;;;22.75;38.73;101184.00;5089351;28;20197;-69
2021/07/19 07:33:03;;;;;;;0.57;0.57;;;;;;;23.19;39.23;101195.44;5088833;28;20214;-66
2021/07/19 07:35:31;;;;;;;0.40;0.40;;;;;;;22.70;37.07;101181.81;5089592;28;20888;-66
2021/07/19 07:38:01;;;;;;;0.60;0.50;;;;;;;22.67;38.32;101175.81;5088684;28;20219;-66
2021/07/19 07:40:32;;;;;;;0.70;0.50;;;;;;;23.02;37.78;101180.94;5087917;28;20203;-66
2021/07/19 07:43:03;;;;;;;0.50;0.50;;;;;;;23.32;37.50;101170.25;5088278;28;20193;-69
2021/07/19 07:45:31;;;;;;;2.30;0.90;;;;;;;23.37;37.87;101179.63;5076548;28;20189;-69
2021/07/19 07:48:00;;;;;;;0.40;0.40;;;;;;;22.95;37.94;101174.41;5089817;28;20202;-69
2021/07/19 07:50:28;;;;;;;0.30;0.30;;;;;;;23.69;37.22;101178.69;5075014;28;20644;-70
2021/07/19 07:52:57;;;;;;;0.40;0.40;;;;;;;24.04;37.23;101179.19;5088945;28;20204;-69
2021/07/19 07:55:26;;;;;;;4.50;1.33;;;;;;;24.10;37.07;101179.28;5088563;28;20185;-69
2021/07/19 07:57:55;;;;;;;1.33;0.50;;;;;;;24.75;36.79;101169.72;5089459;28;20201;-69
2021/07/19 08:00:23;;;;;;;0.87;0.60;;;;;;;25.23;35.98;101181.31;5073889;28;20223;-69
2021/07/19 08:02:51;;;;;;;1.85;0.50;;;;;;;25.22;35.02;101185.94;5088989;28;20218;-69
2021/07/19 08:05:20;;;;;;;2.60;0.90;;;;;;;25.05;35.97;101181.66;5087887;28;20247;-70
2021/07/19 08:07:48;;;;;;;0.37;0.37;;;;;;;25.57;35.85;101165.06;5089293;28;20738;-69
2021/07/19 08:10:17;;;;;;;0.30;0.30;;;;;;;25.55;35.57;101163.56;5089552;28;20208;-66
2021/07/19 08:12:48;;;;;;;0.88;0.50;;;;;;;25.46;35.56;101162.81;5073850;28;20206;-67
2021/07/19 08:15:17;;;;;;;0.30;0.30;;;;;;;25.18;35.09;101167.28;5089108;28;20189;-70
2021/07/19 08:17:46;;;;;;;0.33;0.33;;;;;;;24.76;34.14;101171.44;5088708;28;20212;-69
2021/07/19 08:20:17;;;;;;;0.43;0.40;;;;;;;24.82;36.06;101167.97;5089008;28;20263;-70
2021/07/19 08:22:47;;;;;;;0.40;0.40;;;;;;;24.83;35.15;101169.66;5074127;28;20197;-69
2021/07/19 08:25:16;;;;;;;0.40;0.40;;;;;;;25.20;35.74;101167.94;5088802;28;20672;-70
2021/07/19 08:27:46;;;;;;;0.40;0.40;;;;;;;25.58;34.88;101161.28;5088198;28;20193;-66
2021/07/19 08:30:17;;;;;;;0.43;0.43;;;;;;;25.22;35.13;101172.19;5088624;28;20185;-66
2021/07/19 08:32:46;;;;;;;0.43;0.43;;;;;;;25.49;35.41;101176.19;5088459;28;20200;-66
2021/07/19 08:35:16;;;;;;;0.45;0.45;;;;;;;25.47;35.31;101174.66;5088941;28;20242;-66
2021/07/19 08:37:47;;;;;;;0.40;0.40;;;;;;;25.61;35.61;101163.63;5088880;28;20554;-66
2021/07/19 08:40:17;;;;;;;0.52;0.50;;;;;;;25.05;34.74;101170.66;5074439;28;20192;-66
2021/07/19 08:42:48;;;;;;;0.50;0.50;;;;;;;24.82;36.23;101181.69;5089215;28;20526;-70
2021/07/19 08:45:17;;;;;;;0.50;0.50;;;;;;;24.62;35.67;101175.00;5083009;28;20217;-70
2021/07/19 08:47:48;;;;;;;0.40;0.40;;;;;;;24.58;35.86;101181.91;5080459;28;20672;-70
2021/07/19 08:50:19;;;;;;;0.30;0.30;;;;;;;25.15;35.34;101173.16;5088615;28;20188;-66
2021/07/19 08:52:48;;;;;;;0.50;0.50;;;;;;;25.74;34.78;101175.91;5092458;28;20193;-70
2021/07/19 08:55:18;;;;;;;0.40;0.40;;;;;;;26.42;35.57;101174.56;5091349;28;20197;-70
2021/07/19 08:57:49;;;;;;;0.60;0.60;;;;;;;27.01;34.92;101177.88;5092974;28;20214;-70
2021/07/19 09:00:22;;;;;;;0.43;0.43;;;;;;;27.40;33.53;101179.19;5091702;28;20609;-70
2021/07/19 09:02:54;;;;;;;0.50;0.50;;;;;;;27.21;31.29;101162.28;5092296;28;20205;-70
2021/07/19 09:05:23;;;;;;;0.50;0.50;;;;;;;27.46;32.86;101179.22;5091858;28;20299;-70
2021/07/19 09:07:53;;;;;;;0.38;0.38;;;;;;;27.63;32.19;101173.41;5092010;28;20205;-67
2021/07/19 09:10:26;;;;;;;0.43;0.43;;;;;;;27.21;32.25;101158.69;5091901;28;20204;-66
2021/07/19 09:12:59;;;;;;;0.60;0.60;;;;;;;27.60;32.81;101174.63;5077890;28;20485;-67
2021/07/19 09:15:33;;;;;;;0.40;0.40;;;;;;;27.80;31.64;101174.72;5090560;28;20616;-66
2021/07/19 09:18:04;;;;;;;0.57;0.55;;;;;;;27.75;31.29;101166.22;5077812;28;20262;-67
2021/07/19 09:20:35;;;;;;;0.60;0.60;;;;;;;27.75;31.09;101177.25;5092110;28;20404;-70
2021/07/19 09:23:04;;;;;;;0.50;0.50;;;;;;;27.41;31.20;101156.91;5091006;28;20250;-70
2021/07/19 09:25:33;;;;;;;0.50;0.50;;;;;;;27.86;34.12;101168.41;5081291;28;20224;-70
2021/07/19 09:28:05;;;;;;;0.50;0.50;;;;;;;27.97;31.67;101169.72;5088966;28;20673;-70
2021/07/19 09:30:35;;;;;;;0.40;0.40;;;;;;;27.85;32.69;101169.44;5091632;28;20726;-70
2021/07/19 09:33:05;;;;;;;0.40;0.40;;;;;;;28.41;33.51;101163.66;5088909;28;20627;-70
2021/07/19 09:35:37;;;;;;;0.40;0.40;;;;;;;28.30;30.49;101164.28;5080590;28;20208;-67
2021/07/19 09:38:07;;;;;;;0.50;0.50;;;;;;;28.16;30.83;101163.38;5090903;28;20250;-67
2021/07/19 09:40:37;;;;;;;0.50;0.50;;;;;;;27.90;30.84;101157.81;5091542;28;20426;-67
2021/07/19 09:43:17;;;;;;;0.50;0.50;;;;;;;28.01;32.74;101166.31;5090599;28;20200;-67
2021/07/19 09:45:56;;;;;;;0.60;0.60;;;;;;;27.87;31.94;101169.25;5091735;28;20217;-67
2021/07/19 09:48:24;;;;;;;0.50;0.50;;;;;;;27.73;31.51;101171.09;5090761;28;20192;-66
2021/07/19 09:50:53;;;;;;;0.50;0.50;;;;;;;27.69;32.26;101156.00;5091826;28;20193;-66
2021/07/19 09:53:31;;;;;;;0.60;0.60;;;;;;;28.34;33.50;101171.09;5090044;28;20203;-66
2021/07/19 09:56:12;;;;;;;0.52;0.52;;;;;;;28.54;33.76;101152.63;5091296;28;20691;-67
2021/07/19 09:58:42;;;;;;;0.60;0.60;;;;;;;28.46;32.17;101163.88;5090478;28;20580;-67
2021/07/19 10:01:11;;;;;;;0.50;0.50;;;;;;;28.55;31.08;101168.16;5091195;28;20886;-67
2021/07/19 10:03:40;;;;;;;1.42;0.68;;;;;;;27.37;30.52;101168.56;5089590;28;20700;-66
2021/07/19 10:06:09;;;;;;;0.30;0.30;;;;;;;28.01;34.41;101174.59;5090530;28;20208;-69
2021/07/19 10:08:38;;;;;;;0.45;0.45;;;;;;;28.02;33.81;101154.22;5091077;28;20790;-69
2021/07/19 10:11:16;;;;;;;0.40;0.40;;;;;;;28.08;30.83;101160.81;5087104;28;20243;-69
2021/07/19 10:13:49;;;;;;;0.70;0.50;;;;;;;28.04;31.44;101157.63;5082638;28;20208;-69
2021/07/19 10:16:18;;;;;;;0.47;0.47;;;;;;;28.31;32.10;101143.88;5085576;28;20205;-70
2021/07/19 10:18:48;;;;;;;0.50;0.50;;;;;;;28.63;31.08;101165.19;5081838;28;20936;-69
2021/07/19 10:21:18;;;;;;;0.40;0.40;;;;;;;28.37;30.54;101162.38;5090399;28;20228;-69
2021/07/19 10:23:47;;;;;;;0.47;0.47;;;;;;;28.45;30.92;101151.97;5080341;28;20197;-69
2021/07/19 10:26:17;;;;;;;0.50;0.50;;;;;;;28.47;30.63;101157.31;5087162;28;20216;-70
2021/07/19 10:28:46;;;;;;;0.38;0.38;;;;;;;28.33;31.74;101105.84;5090808;28;20668;-69
2021/07/19 10:31:17;;;;;;;0.50;0.50;;;;;;;27.91;30.08;101141.03;5089766;28;20640;-66
2021/07/19 10:33:47;;;;;;;0.50;0.50;;;;;;;27.74;30.79;101153.47;5082680;28;20201;-69
2021/07/19 10:36:22;;;;;;;0.35;0.35;;;;;;;27.97;30.57;101148.47;5085237;28;20200;-69
2021/07/19 10:38:54;;;;;;;0.40;0.40;;;;;;;28.31;30.81;101157.72;5090551;28;20243;-69
2021/07/19 10:41:24;;;;;;;1.05;0.52;;;;;;;28.49;30.75;101146.91;5075751;28;20233;-69
2021/07/19 10:44:09;;;;;;;0.50;0.50;;;;;;;28.63;29.60;101147.75;5082881;28;20224;-67
2021/07/19 10:46:38;;;;;;;0.40;0.40;;;;;;;28.67;30.20;101149.88;5084446;28;20768;-66
2021/07/19 10:49:09;;;;;;;0.40;0.40;;;;;;;28.77;31.96;101144.75;5081529;28;20564;-66
2021/07/19 10:51:40;;;;;;;0.57;0.57;;;;;;;28.98;30.48;101145.63;5071894;28;20201;-68
2021/07/19 10:54:16;;;;;;;0.47;0.40;;;;;;;29.08;31.17;101148.78;5090023;28;20564;-69
2021/07/19 10:56:46;;;;;;;0.50;0.50;;;;;;;29.08;30.86;101134.09;5089817;28;20207;-66
2021/07/19 10:59:24;;;;;;;0.40;0.40;;;;;;;29.03;31.14;101120.91;5090355;28;20275;-67
2021/07/19 11:01:55;;;;;;;0.50;0.50;;;;;;;29.32;31.38;101139.78;5089660;28;20657;-69
2021/07/19 11:04:25;;;;;;;0.60;0.60;;;;;;;29.06;30.09;101140.69;5089675;28;20597;-70
2021/07/19 11:06:58;;;;;;;0.20;0.20;;;;;;;29.31;30.07;101137.25;5089995;28;20556;-70
2021/07/19 11:09:36;;;;;;;0.40;0.40;;;;;;;28.63;28.93;101118.19;5083406;28;20208;-69
2021/07/19 11:12:12;;;;;;;0.60;0.60;;;;;;;28.12;29.00;101137.22;5071776;28;20242;-69
2021/07/19 11:14:46;;;;;;;0.50;0.50;;;;;;;27.62;30.81;101122.00;5088076;28;20203;-66
2021/07/19 11:17:17;;;;;;;0.65;0.63;;;;;;;27.24;31.68;101125.19;5090070;28;20614;-66
2021/07/19 11:19:48;;;;;;;0.43;0.43;;;;;;;27.45;31.58;101130.59;5088920;28;20201;-69
2021/07/19 11:22:24;;;;;;;0.40;0.40;;;;;;;27.33;31.62;101090.88;5090124;28;20279;-69
2021/07/19 11:24:54;;;;;;;0.40;0.40;;;;;;;27.78;30.40;101118.88;5089432;28;20192;-69
2021/07/19 11:27:33;;;;;;;0.70;0.57;;;;;;;28.38;31.42;101123.47;5089156;28;20216;-69
2021/07/19 11:30:05;;;;;;;0.60;0.60;;;;;;;28.68;31.75;101128.59;5087548;28;20570;-69
2021/07/19 11:32:36;;;;;;;0.40;0.40;;;;;;;28.83;31.37;101128.38;5089393;28;20240;-67
2021/07/19 11:35:11;;;;;;;2.38;0.60;;;;;;;28.97;32.47;101130.09;5088689;28;20192;-69
2021/07/19 11:37:41;;;;;;;0.52;0.52;;;;;;;29.30;33.44;101133.63;5089715;28;20733;-69
2021/07/19 11:40:11;;;;;;;0.40;0.40;;;;;;;29.59;34.01;101131.44;5089714;28;20649;-69
2021/07/19 11:42:44;;;;;;;0.70;0.70;;;;;;;29.87;33.58;101123.63;5089721;28;20211;-66